Time;durP1;ratioP1;P1;durP2;ratioP2;P2;SDS_P1;SDS_P2;PMS_P1;PMS_P2;Temp;Humidity;BMP_temperature;BMP_pressure;BME280_temperature;BME280_humidity;BME280_pressure;Samples;Min_cycle;Max_cycle;Signal;HPM_P1;HPM_P2
2023/09/30 00:00:33;;;;;;;1.47;0.50;;;18.50;99.90;;;;;;5115797;28;20416;-58
2023/09/30 00:03:00;;;;;;;1.40;0.50;;;18.40;99.90;;;;;;5115012;28;20424;-58
2023/09/30 00:05:28;;;;;;;1.60;0.50;;;18.50;99.90;;;;;;5114539;28;20498;-58
2023/09/30 00:07:55;;;;;;;0.95;0.50;;;18.70;99.90;;;;;;5114617;28;20420;-58
2023/09/30 00:10:22;;;;;;;0.98;0.50;;;18.70;99.90;;;;;;5114515;28;20475;-58
2023/09/30 00:12:49;;;;;;;1.05;0.60;;;18.70;99.90;;;;;;5116173;28;20867;-58
2023/09/30 00:15:16;;;;;;;1.23;0.40;;;18.60;99.90;;;;;;5116921;28;20428;-58
2023/09/30 00:17:45;;;;;;;1.20;0.40;;;18.50;99.90;;;;;;5116096;28;20432;-58
2023/09/30 00:20:14;;;;;;;1.25;0.50;;;18.60;99.90;;;;;;5116420;28;20490;-58
2023/09/30 00:22:41;;;;;;;1.80;0.50;;;18.50;99.90;;;;;;5116333;28;20424;-58
2023/09/30 00:25:09;;;;;;;0.77;0.40;;;18.40;1.00;;;;;;5115679;28;20873;-58
2023/09/30 00:27:37;;;;;;;1.00;0.50;;;18.30;1.00;;;;;;5116155;28;20423;-58
2023/09/30 00:30:06;;;;;;;1.60;0.57;;;18.30;1.00;;;;;;5115268;28;20937;-58
2023/09/30 00:32:33;;;;;;;1.10;0.50;;;18.20;1.00;;;;;;5115948;28;20429;-58
2023/09/30 00:35:04;;;;;;;1.00;0.50;;;18.20;1.00;;;;;;5115800;28;20415;-58
2023/09/30 00:37:31;;;;;;;1.07;0.40;;;18.20;1.00;;;;;;5116365;28;20491;-58
2023/09/30 00:39:58;;;;;;;1.42;0.40;;;18.30;1.00;;;;;;5116231;28;20411;-58
2023/09/30 00:42:26;;;;;;;0.95;0.40;;;18.30;1.00;;;;;;5116413;28;20899;-58
2023/09/30 00:44:53;;;;;;;0.80;0.40;;;18.40;1.00;;;;;;5115840;28;20909;-58
2023/09/30 00:47:21;;;;;;;1.63;0.45;;;18.40;1.00;;;;;;5115902;28;20418;-58
2023/09/30 00:49:49;;;;;;;1.20;0.50;;;18.40;1.00;;;;;;5115647;28;20431;-58
2023/09/30 00:52:18;;;;;;;1.70;0.50;;;18.40;1.00;;;;;;5116155;28;20424;-58
2023/09/30 00:54:47;;;;;;;0.90;0.40;;;18.40;1.00;;;;;;5115891;28;20775;-58
2023/09/30 00:57:15;;;;;;;1.13;0.50;;;18.30;1.00;;;;;;5115965;28;20424;-58
2023/09/30 00:59:42;;;;;;;1.17;0.40;;;18.40;1.00;;;;;;5115669;28;20511;-58
2023/09/30 01:02:09;;;;;;;1.40;0.60;;;18.30;1.00;;;;;;5115222;28;20408;-58
2023/09/30 01:04:38;;;;;;;1.90;0.40;;;18.40;1.00;;;;;;5115139;28;20511;-58
2023/09/30 01:07:06;;;;;;;1.10;0.43;;;18.40;1.00;;;;;;5114918;28;20522;-58
2023/09/30 01:09:36;;;;;;;1.60;0.50;;;18.40;1.00;;;;;;5115676;28;20436;-58
2023/09/30 01:12:04;;;;;;;1.10;0.50;;;18.40;1.00;;;;;;5115362;28;20428;-58
2023/09/30 01:14:34;;;;;;;0.70;0.40;;;18.30;1.00;;;;;;5113880;28;20424;-57
2023/09/30 01:17:01;;;;;;;0.80;0.40;;;18.30;1.00;;;;;;5114790;28;20430;-58
2023/09/30 01:19:29;;;;;;;1.00;0.43;;;18.30;1.00;;;;;;5114903;28;20735;-58
2023/09/30 01:21:59;;;;;;;1.10;0.50;;;18.30;1.00;;;;;;5114759;28;20432;-58
2023/09/30 01:24:26;;;;;;;0.90;0.40;;;18.20;1.00;;;;;;5115035;28;20852;-58
2023/09/30 01:26:54;;;;;;;0.90;0.50;;;18.30;1.00;;;;;;5114904;28;20531;-56
2023/09/30 01:29:22;;;;;;;1.05;0.50;;;18.20;1.00;;;;;;5114994;28;20460;-57
2023/09/30 01:31:49;;;;;;;1.95;0.55;;;18.20;1.00;;;;;;5115077;28;20416;-58
2023/09/30 01:34:17;;;;;;;0.80;0.40;;;18.20;1.00;;;;;;5114918;28;20416;-58
2023/09/30 01:36:44;;;;;;;1.75;0.50;;;18.10;1.00;;;;;;5115623;28;20787;-58
2023/09/30 01:39:13;;;;;;;1.00;0.50;;;18.00;1.00;;;;;;5114567;28;20723;-58
2023/09/30 01:41:40;;;;;;;1.00;0.43;;;17.90;1.00;;;;;;5115192;28;20511;-58
2023/09/30 01:44:09;;;;;;;1.30;0.40;;;18.00;1.00;;;;;;5115526;28;20483;-58
2023/09/30 01:46:37;;;;;;;0.90;0.40;;;17.90;1.00;;;;;;5114913;28;20419;-58
2023/09/30 01:49:04;;;;;;;0.80;0.40;;;18.00;1.00;;;;;;5115277;28;20867;-58
2023/09/30 01:51:32;;;;;;;0.60;0.30;;;18.00;1.00;;;;;;5115038;28;20431;-58
2023/09/30 01:53:59;;;;;;;1.30;0.50;;;18.00;1.00;;;;;;5115453;28;20423;-58
2023/09/30 01:56:27;;;;;;;1.90;0.50;;;17.90;1.00;;;;;;5115531;28;20424;-57
2023/09/30 01:58:54;;;;;;;1.40;0.50;;;17.70;1.00;;;;;;5115067;28;20514;-58
2023/09/30 02:01:22;;;;;;;1.40;0.50;;;17.60;1.00;;;;;;5114802;28;20428;-58
2023/09/30 02:03:49;;;;;;;2.10;0.40;;;17.60;1.00;;;;;;5115131;28;20739;-58
2023/09/30 02:06:17;;;;;;;2.00;0.43;;;17.70;1.00;;;;;;5115030;28;20511;-58
2023/09/30 02:08:44;;;;;;;1.30;0.40;;;17.70;1.00;;;;;;5115128;28;20424;-58
2023/09/30 02:11:13;;;;;;;1.02;0.50;;;17.80;1.00;;;;;;5114422;28;20431;-58
2023/09/30 02:13:42;;;;;;;0.80;0.40;;;17.80;1.00;;;;;;5113345;28;20412;-58
2023/09/30 02:16:13;;;;;;;1.20;0.50;;;17.80;1.00;;;;;;5115077;28;20723;-58
2023/09/30 02:18:41;;;;;;;1.60;0.50;;;17.80;1.00;;;;;;5115127;28;20443;-58
2023/09/30 02:21:09;;;;;;;1.30;0.50;;;17.60;1.00;;;;;;5115212;28;20416;-58
2023/09/30 02:23:37;;;;;;;0.90;0.50;;;17.40;1.00;;;;;;5114779;28;20816;-58
2023/09/30 02:26:04;;;;;;;2.30;0.50;;;17.30;1.00;;;;;;5114468;28;20511;-58
2023/09/30 02:28:32;;;;;;;1.40;0.50;;;17.40;1.00;;;;;;5119013;28;20849;-58
2023/09/30 02:31:01;;;;;;;1.20;0.50;;;17.50;1.00;;;;;;5118486;28;20436;-58
2023/09/30 02:33:28;;;;;;;1.25;0.60;;;17.60;1.00;;;;;;5118437;28;20424;-58
2023/09/30 02:35:56;;;;;;;1.10;0.50;;;17.60;1.00;;;;;;5118163;28;20473;-58
2023/09/30 02:38:23;;;;;;;0.90;0.50;;;17.60;1.00;;;;;;5118805;28;20695;-57
2023/09/30 02:40:51;;;;;;;0.80;0.47;;;17.60;1.00;;;;;;5118318;28;20405;-57
2023/09/30 02:43:19;;;;;;;1.80;0.50;;;17.60;1.00;;;;;;5118675;28;20436;-58
2023/09/30 02:45:47;;;;;;;1.20;0.50;;;17.60;1.00;;;;;;5117545;28;20528;-57
2023/09/30 02:48:15;;;;;;;1.10;0.50;;;17.60;1.00;;;;;;5117928;28;20522;-58
2023/09/30 02:50:45;;;;;;;1.33;0.50;;;17.70;1.00;;;;;;5117987;28;20442;-58
2023/09/30 02:53:12;;;;;;;0.73;0.40;;;17.70;1.00;;;;;;5118486;28;20412;-58
2023/09/30 02:55:40;;;;;;;1.40;0.50;;;17.60;1.00;;;;;;5117582;28;20816;-57
2023/09/30 02:58:08;;;;;;;1.00;0.50;;;17.50;1.00;;;;;;5117861;28;20464;-58
2023/09/30 03:00:37;;;;;;;1.30;0.60;;;17.50;1.00;;;;;;5117671;28;20511;-58
2023/09/30 03:03:05;;;;;;;1.40;0.50;;;17.50;1.00;;;;;;5118467;28;20424;-58
2023/09/30 03:05:34;;;;;;;1.30;0.70;;;17.60;1.00;;;;;;5117828;28;20519;-58
2023/09/30 03:08:02;;;;;;;1.30;0.50;;;17.50;1.00;;;;;;5118088;28;20420;-57
2023/09/30 03:10:29;;;;;;;0.90;0.50;;;17.50;1.00;;;;;;5117693;28;20467;-58
2023/09/30 03:12:56;;;;;;;1.75;0.50;;;17.50;1.00;;;;;;5117868;28;20519;-58
2023/09/30 03:15:24;;;;;;;1.20;0.50;;;17.50;1.00;;;;;;5117228;28;20455;-58
2023/09/30 03:17:51;;;;;;;1.60;0.60;;;17.50;1.00;;;;;;5117831;28;20424;-57
2023/09/30 03:20:20;;;;;;;2.30;0.50;;;17.40;1.00;;;;;;5117693;28;20504;-57
2023/09/30 03:22:49;;;;;;;1.60;0.50;;;17.30;1.00;;;;;;5117764;28;20424;-57
2023/09/30 03:25:20;;;;;;;0.90;0.60;;;17.30;1.00;;;;;;5117116;28;20507;-58
2023/09/30 03:27:48;;;;;;;2.13;0.60;;;17.20;1.00;;;;;;5117234;28;20428;-56
2023/09/30 03:30:16;;;;;;;1.35;0.50;;;17.10;1.00;;;;;;5116752;28;20839;-58
2023/09/30 03:32:44;;;;;;;1.08;0.50;;;17.10;1.00;;;;;;5116834;28;20523;-58
2023/09/30 03:35:15;;;;;;;1.00;0.50;;;17.30;1.00;;;;;;5116485;28;20807;-58
2023/09/30 03:37:42;;;;;;;1.00;0.50;;;17.40;1.00;;;;;;5115622;28;20432;-58
2023/09/30 03:40:14;;;;;;;0.80;0.40;;;17.40;1.00;;;;;;5116260;28;20416;-58
2023/09/30 03:42:43;;;;;;;1.20;0.50;;;17.40;1.00;;;;;;5116855;28;20499;-58
2023/09/30 03:45:12;;;;;;;1.65;0.50;;;17.30;1.00;;;;;;5116934;28;20481;-58
2023/09/30 03:47:40;;;;;;;0.90;0.60;;;17.20;1.00;;;;;;5117500;28;20450;-58
2023/09/30 03:50:13;;;;;;;1.20;0.60;;;17.10;1.00;;;;;;5117232;28;20463;-58
2023/09/30 03:52:44;;;;;;;1.33;0.60;;;17.10;1.00;;;;;;5117525;28;20877;-58
2023/09/30 03:55:13;;;;;;;1.90;0.60;;;17.00;1.00;;;;;;5117019;28;20839;-58
2023/09/30 03:57:40;;;;;;;1.30;0.60;;;17.00;1.00;;;;;;5117007;28;20472;-58
2023/09/30 04:00:15;;;;;;;0.80;0.52;;;16.90;1.00;;;;;;5117004;28;20451;-58
2023/09/30 04:02:43;;;;;;;1.30;0.60;;;16.90;1.00;;;;;;5116727;28;20515;-58
2023/09/30 04:05:12;;;;;;;1.33;0.60;;;17.00;1.00;;;;;;5115601;28;20431;-58
2023/09/30 04:07:39;;;;;;;1.00;0.60;;;17.00;1.00;;;;;;5116353;28;20408;-57
2023/09/30 04:10:07;;;;;;;1.20;0.50;;;17.00;1.00;;;;;;5115476;28;20851;-58
2023/09/30 04:12:36;;;;;;;2.20;0.50;;;17.20;1.00;;;;;;5113591;28;20511;-58
2023/09/30 04:15:05;;;;;;;0.90;0.50;;;17.10;1.00;;;;;;5114589;28;20916;-58
2023/09/30 04:17:32;;;;;;;1.77;0.40;;;17.20;1.00;;;;;;5115096;28;20541;-57
2023/09/30 04:19:59;;;;;;;1.85;0.50;;;17.20;1.00;;;;;;5114870;28;20411;-58
2023/09/30 04:22:29;;;;;;;0.88;0.50;;;17.20;1.00;;;;;;5114477;28;20420;-58
2023/09/30 04:24:56;;;;;;;2.40;0.50;;;17.20;1.00;;;;;;5116225;28;20497;-58
2023/09/30 04:27:24;;;;;;;1.80;0.50;;;17.20;1.00;;;;;;5116431;28;20480;-58
2023/09/30 04:29:53;;;;;;;1.30;0.60;;;17.30;1.00;;;;;;5116346;28;20921;-57
2023/09/30 04:32:20;;;;;;;1.58;0.50;;;17.30;1.00;;;;;;5114307;28;20499;-57
2023/09/30 04:34:47;;;;;;;1.55;0.50;;;17.20;1.00;;;;;;5113103;28;20435;-57
2023/09/30 04:37:15;;;;;;;1.27;0.60;;;17.00;1.00;;;;;;5113379;28;20416;-57
2023/09/30 04:39:42;;;;;;;0.90;0.50;;;16.90;1.00;;;;;;5114276;28;20435;-59
2023/09/30 04:42:10;;;;;;;1.20;0.50;;;17.00;1.00;;;;;;5113772;28;20906;-58
2023/09/30 04:44:38;;;;;;;1.60;0.50;;;17.10;1.00;;;;;;5114434;28;20867;-59
2023/09/30 04:47:07;;;;;;;1.70;0.57;;;17.10;1.00;;;;;;5114571;28;20723;-59
2023/09/30 04:49:35;;;;;;;1.20;0.50;;;17.10;1.00;;;;;;5115241;28;20455;-59
2023/09/30 04:52:02;;;;;;;1.70;0.57;;;17.20;1.00;;;;;;5114963;28;20742;-59
2023/09/30 04:54:30;;;;;;;1.20;0.50;;;17.20;1.00;;;;;;5116009;28;20430;-56
2023/09/30 04:56:57;;;;;;;1.60;0.60;;;17.20;1.00;;;;;;5115740;28;20428;-58
2023/09/30 04:59:25;;;;;;;0.97;0.50;;;17.20;1.00;;;;;;5115476;28;20519;-58
2023/09/30 05:01:53;;;;;;;1.20;0.50;;;17.20;1.00;;;;;;5114542;28;20948;-58
2023/09/30 05:04:23;;;;;;;1.80;0.50;;;17.20;1.00;;;;;;5115900;28;20459;-57
2023/09/30 05:06:50;;;;;;;1.13;0.60;;;17.10;1.00;;;;;;5115123;28;20416;-57
2023/09/30 05:09:18;;;;;;;1.30;0.60;;;17.00;1.00;;;;;;5115416;28;20735;-58
2023/09/30 05:11:45;;;;;;;1.40;0.50;;;16.90;1.00;;;;;;5114617;28;20846;-61
2023/09/30 05:14:13;;;;;;;1.27;0.60;;;16.90;1.00;;;;;;5114229;28;20495;-58
2023/09/30 05:16:41;;;;;;;2.35;0.50;;;17.00;1.00;;;;;;5114721;28;20559;-57
2023/09/30 05:19:08;;;;;;;1.13;0.50;;;17.10;1.00;;;;;;5115235;28;20424;-56
2023/09/30 05:21:36;;;;;;;1.70;0.50;;;17.10;1.00;;;;;;5115604;28;20416;-57
2023/09/30 05:24:05;;;;;;;1.80;0.60;;;17.10;1.00;;;;;;5115516;28;20426;-57
2023/09/30 05:26:32;;;;;;;0.70;0.50;;;17.10;1.00;;;;;;5114698;28;20424;-57
2023/09/30 05:29:00;;;;;;;1.40;0.50;;;17.00;1.00;;;;;;5115292;28;20452;-57
2023/09/30 05:31:27;;;;;;;1.40;0.60;;;17.00;1.00;;;;;;5114736;28;20428;-57
2023/09/30 05:33:55;;;;;;;1.00;0.60;;;16.90;1.00;;;;;;5115569;28;20420;-59
2023/09/30 05:36:22;;;;;;;1.08;0.50;;;16.90;1.00;;;;;;5115037;28;20789;-57
2023/09/30 05:38:51;;;;;;;1.30;0.50;;;16.90;1.00;;;;;;5115511;28;20430;-58
2023/09/30 05:41:20;;;;;;;0.70;0.50;;;16.90;1.00;;;;;;5115118;28;20499;-58
2023/09/30 05:43:47;;;;;;;1.08;0.60;;;16.90;1.00;;;;;;5115331;28;20420;-57
2023/09/30 05:46:16;;;;;;;1.40;0.50;;;16.70;1.00;;;;;;5113738;28;20510;-58
2023/09/30 05:48:43;;;;;;;1.80;0.70;;;16.60;1.00;;;;;;5114533;28;20420;-57
2023/09/30 05:51:14;;;;;;;2.60;0.70;;;16.60;7.10;;;;;;5114997;28;20450;-57
2023/09/30 05:53:42;;;;;;;1.20;0.70;;;16.50;23.00;;;;;;5114235;28;20835;-57
2023/09/30 05:56:11;;;;;;;1.23;0.52;;;16.40;33.40;;;;;;5114929;28;20412;-59
2023/09/30 05:58:38;;;;;;;1.45;0.60;;;16.50;27.80;;;;;;5115012;28;20451;-57
2023/09/30 06:01:10;;;;;;;1.30;0.50;;;16.50;25.40;;;;;;5111385;28;20427;-57
2023/09/30 06:03:39;;;;;;;1.08;0.50;;;16.60;15.40;;;;;;5101956;28;20816;-57
2023/09/30 06:06:13;;;;;;;1.40;0.60;;;16.50;7.70;;;;;;5096711;28;20413;-58
2023/09/30 06:08:40;;;;;;;0.90;0.60;;;16.60;11.00;;;;;;5092645;28;20833;-58
2023/09/30 06:11:08;;;;;;;1.00;0.55;;;16.70;1.30;;;;;;5096291;28;20552;-57
2023/09/30 06:13:36;;;;;;;1.70;0.52;;;16.70;1.00;;;;;;5097084;28;20892;-57
2023/09/30 06:16:04;;;;;;;2.47;0.60;;;16.80;1.00;;;;;;5096550;28;20508;-57
2023/09/30 06:18:31;;;;;;;1.40;0.60;;;16.70;1.00;;;;;;5096455;28;20521;-59
2023/09/30 06:20:59;;;;;;;1.73;0.60;;;16.70;1.00;;;;;;5096404;28;20456;-59
2023/09/30 06:23:26;;;;;;;2.35;0.50;;;17.00;1.00;;;;;;5096260;28;20817;-57
2023/09/30 06:25:53;;;;;;;1.13;0.60;;;17.10;1.00;;;;;;5096488;28;20828;-57
2023/09/30 06:28:25;;;;;;;1.40;0.60;;;17.30;1.00;;;;;;5096973;28;20868;-59
2023/09/30 06:30:54;;;;;;;1.30;0.50;;;17.40;1.00;;;;;;5097614;28;20520;-58
2023/09/30 06:33:22;;;;;;;1.30;0.50;;;17.50;1.00;;;;;;5097096;28;20433;-58
2023/09/30 06:35:51;;;;;;;1.25;0.57;;;17.40;1.00;;;;;;5097986;28;20821;-58
2023/09/30 06:38:19;;;;;;;1.40;0.70;;;17.40;1.00;;;;;;5097063;28;20422;-58
2023/09/30 06:40:47;;;;;;;2.45;0.60;;;17.30;1.00;;;;;;5096935;28;20774;-58
2023/09/30 06:43:15;;;;;;;1.25;0.70;;;17.30;1.00;;;;;;5097081;28;20432;-58
2023/09/30 06:45:43;;;;;;;1.25;0.70;;;17.20;1.00;;;;;;5097702;28;20430;-58
2023/09/30 06:48:12;;;;;;;2.03;0.80;;;17.20;1.00;;;;;;5096988;28;20426;-58
2023/09/30 06:50:41;;;;;;;1.33;0.70;;;17.20;1.00;;;;;;5095633;28;20426;-58
2023/09/30 06:53:09;;;;;;;1.50;0.60;;;17.40;1.00;;;;;;5096293;28;20418;-59
2023/09/30 06:55:39;;;;;;;1.00;0.57;;;17.60;1.00;;;;;;5079243;28;20418;-59
2023/09/30 06:58:10;;;;;;;3.10;0.60;;;17.80;1.00;;;;;;5096871;28;20422;-59
2023/09/30 07:00:37;;;;;;;1.70;0.70;;;17.90;1.00;;;;;;5095738;28;20910;-58
2023/09/30 07:03:05;;;;;;;1.10;0.70;;;17.80;1.00;;;;;;5095098;28;20860;-58
2023/09/30 07:05:35;;;;;;;2.30;0.70;;;17.70;1.00;;;;;;5094959;28;20794;-59
2023/09/30 07:08:03;;;;;;;1.50;0.80;;;17.40;1.00;;;;;;5095676;28;20898;-58
2023/09/30 07:10:30;;;;;;;1.55;0.73;;;17.20;1.00;;;;;;5095994;28;20531;-58
2023/09/30 07:12:57;;;;;;;1.95;0.70;;;17.40;1.00;;;;;;5091057;28;20437;-58
2023/09/30 07:15:24;;;;;;;1.40;0.60;;;17.60;1.00;;;;;;5099033;28;20878;-58
2023/09/30 07:17:52;;;;;;;1.70;0.70;;;17.60;1.00;;;;;;5125042;27;20528;-59
2023/09/30 07:20:20;;;;;;;1.50;0.60;;;17.60;1.00;;;;;;5136217;27;20721;-59
2023/09/30 07:22:48;;;;;;;1.33;0.60;;;17.70;1.00;;;;;;5136779;27;20415;-59
2023/09/30 07:25:17;;;;;;;1.85;0.60;;;17.70;1.00;;;;;;5135817;27;20521;-59
2023/09/30 07:27:44;;;;;;;1.10;0.70;;;17.70;1.00;;;;;;5136879;27;20841;-58
2023/09/30 07:30:14;;;;;;;1.40;0.60;;;17.60;1.00;;;;;;5136033;27;20415;-58
2023/09/30 07:32:43;;;;;;;1.25;0.60;;;17.70;1.00;;;;;;5135571;27;20469;-58
2023/09/30 07:35:11;;;;;;;1.70;0.60;;;17.70;1.00;;;;;;5135939;27;20781;-58
2023/09/30 07:37:38;;;;;;;2.40;0.70;;;17.70;1.00;;;;;;5135199;27;20442;-58
2023/09/30 07:40:08;;;;;;;1.40;0.70;;;17.80;1.00;;;;;;5134704;27;20517;-58
2023/09/30 07:42:36;;;;;;;1.80;1.00;;;17.60;1.00;;;;;;5135971;27;20426;-57
2023/09/30 07:45:04;;;;;;;2.53;0.70;;;17.60;1.00;;;;;;5135440;27;20509;-58
2023/09/30 07:47:33;;;;;;;1.40;0.70;;;17.70;1.00;;;;;;5134990;27;20848;-58
2023/09/30 07:50:02;;;;;;;1.80;0.70;;;17.70;1.00;;;;;;5135537;27;20450;-58
2023/09/30 07:52:29;;;;;;;2.60;0.70;;;17.70;1.00;;;;;;5134349;27;20426;-60
2023/09/30 07:54:56;;;;;;;1.23;0.60;;;17.70;1.00;;;;;;5136323;27;20425;-58
2023/09/30 07:57:25;;;;;;;1.40;0.70;;;17.70;1.00;;;;;;5119719;27;20443;-58
2023/09/30 07:59:53;;;;;;;4.00;0.80;;;17.80;1.00;;;;;;5112927;28;20482;-58
2023/09/30 08:02:22;;;;;;;1.43;0.70;;;17.90;1.00;;;;;;5114477;28;20412;-59
2023/09/30 08:04:49;;;;;;;1.80;0.70;;;18.00;1.00;;;;;;5107844;28;20462;-58
2023/09/30 08:07:16;;;;;;;2.13;0.60;;;18.10;1.00;;;;;;5107780;28;20467;-59
2023/09/30 08:09:44;;;;;;;2.00;0.60;;;18.20;1.00;;;;;;5091647;28;20952;-59
2023/09/30 08:12:12;;;;;;;2.50;0.60;;;18.30;1.00;;;;;;5107979;27;20426;-60
2023/09/30 08:14:41;;;;;;;2.10;0.80;;;18.40;1.00;;;;;;5100265;27;20433;-58
2023/09/30 08:17:08;;;;;;;2.50;0.70;;;18.40;1.00;;;;;;5100860;28;20494;-58
2023/09/30 08:19:35;;;;;;;1.98;0.80;;;18.30;1.00;;;;;;5102948;28;20426;-58
2023/09/30 08:22:03;;;;;;;2.50;0.80;;;18.20;1.00;;;;;;5106380;28;20428;-59
2023/09/30 08:24:30;;;;;;;1.52;0.80;;;18.10;1.00;;;;;;5114454;28;20432;-57
2023/09/30 08:26:57;;;;;;;1.20;0.80;;;18.10;1.00;;;;;;5112078;28;20515;-57
2023/09/30 08:29:24;;;;;;;2.57;0.80;;;17.90;1.00;;;;;;5113885;28;20514;-57
2023/09/30 08:31:53;;;;;;;1.70;0.80;;;17.90;1.00;;;;;;5105420;28;20511;-59
2023/09/30 08:34:23;;;;;;;1.30;0.73;;;17.80;1.00;;;;;;5094223;28;20509;-57
2023/09/30 08:36:50;;;;;;;1.23;0.80;;;17.80;1.00;;;;;;5105513;28;20882;-56
2023/09/30 08:39:17;;;;;;;0.90;0.70;;;17.90;1.00;;;;;;5112868;28;20510;-58
2023/09/30 08:41:45;;;;;;;2.80;0.60;;;17.90;1.00;;;;;;5094208;28;20516;-58
2023/09/30 08:44:12;;;;;;;1.02;0.60;;;17.90;1.00;;;;;;5094491;28;20892;-58
2023/09/30 08:46:41;;;;;;;2.22;0.70;;;18.10;1.00;;;;;;5098795;28;20463;-60
2023/09/30 08:49:12;;;;;;;2.20;0.80;;;18.30;99.90;;;;;;5125804;27;20438;-59
2023/09/30 08:51:40;;;;;;;2.63;0.70;;;18.40;99.90;;;;;;5127718;27;20523;-60
2023/09/30 08:54:07;;;;;;;1.77;0.80;;;18.40;99.90;;;;;;5113975;28;20431;-59
2023/09/30 08:56:35;;;;;;;1.20;0.70;;;18.30;99.90;;;;;;5114520;28;20420;-59
2023/09/30 08:59:04;;;;;;;2.30;0.80;;;18.40;99.90;;;;;;5096134;28;20671;-59
2023/09/30 09:01:39;;;;;;;1.30;0.80;;;18.50;99.90;;;;;;5091325;28;20410;-59
2023/09/30 09:04:10;;;;;;;2.20;0.80;;;18.60;99.90;;;;;;5093944;28;20849;-61
2023/09/30 09:06:37;;;;;;;2.00;0.80;;;18.60;99.90;;;;;;5093954;28;20513;-62
2023/09/30 09:09:18;;;;;;;1.80;0.80;;;18.60;1.00;;;;;;5094770;28;20517;-61
2023/09/30 09:11:45;;;;;;;1.63;0.70;;;18.50;1.00;;;;;;5111685;28;20503;-61
2023/09/30 09:14:12;;;;;;;1.60;0.80;;;18.40;23.80;;;;;;5112000;28;20496;-60
2023/09/30 09:16:53;;;;;;;2.08;0.70;;;18.30;99.90;;;;;;5107513;28;20462;-61
2023/09/30 09:19:22;;;;;;;3.67;0.80;;;18.40;99.90;;;;;;5113513;28;20420;-61
2023/09/30 09:21:57;;;;;;;1.50;0.70;;;18.50;43.80;;;;;;5114383;28;20507;-60
2023/09/30 09:24:34;;;;;;;1.60;0.70;;;18.70;46.60;;;;;;5113761;28;20747;-60
2023/09/30 09:27:09;;;;;;;1.60;0.70;;;18.90;1.00;;;;;;5114788;28;20420;-60
2023/09/30 09:29:37;;;;;;;1.80;0.70;;;19.20;1.00;;;;;;5104955;28;20865;-60
2023/09/30 09:32:12;;;;;;;1.98;0.80;;;19.40;1.00;;;;;;5094413;28;20426;-60
2023/09/30 09:34:41;;;;;;;2.40;0.80;;;19.40;99.90;;;;;;5108167;28;20469;-60
2023/09/30 09:37:16;;;;;;;1.20;0.70;;;19.50;1.00;;;;;;5115138;28;20527;-61
2023/09/30 09:39:51;;;;;;;2.00;0.80;;;19.30;1.00;;;;;;5095518;28;20513;-61
2023/09/30 09:42:29;;;;;;;1.80;0.70;;;19.50;1.00;;;;;;5094873;28;20428;-60
2023/09/30 09:44:58;;;;;;;1.80;0.80;;;19.70;1.00;;;;;;5099017;28;20805;-60
2023/09/30 09:47:26;;;;;;;2.40;0.70;;;19.90;99.90;;;;;;5113949;28;20431;-60
2023/09/30 09:49:57;;;;;;;1.00;0.60;;;20.10;99.90;;;;;;5114308;28;21002;-61
2023/09/30 09:52:26;;;;;;;1.10;0.50;;;20.50;99.90;;;;;;5114595;28;20476;-61
2023/09/30 09:54:53;;;;;;;1.20;0.60;;;20.60;99.90;;;;;;5109490;28;21083;-61
2023/09/30 09:57:21;;;;;;;1.52;0.70;;;21.00;12.50;;;;;;5118379;27;20551;-61
2023/09/30 09:59:49;;;;;;;1.52;0.60;;;21.40;1.00;;;;;;5113894;27;20467;-62
2023/09/30 10:02:17;;;;;;;2.60;0.70;;;21.40;1.00;;;;;;5116000;27;20870;-62
2023/09/30 10:04:46;;;;;;;1.95;0.77;;;21.60;1.00;;;;;;5122687;27;20422;-62
2023/09/30 10:07:20;;;;;;;1.10;0.70;;;21.30;1.00;;;;;;5110785;27;20439;-62
2023/09/30 10:09:51;;;;;;;1.20;0.80;;;21.50;1.00;;;;;;5116824;28;20511;-62
2023/09/30 10:12:21;;;;;;;1.65;0.70;;;21.60;99.90;;;;;;5104039;28;20718;-62
2023/09/30 10:14:48;;;;;;;1.52;0.80;;;21.50;1.00;;;;;;5093336;28;20787;-62
2023/09/30 10:17:16;;;;;;;1.60;0.73;;;21.60;99.90;;;;;;5095138;28;20433;-60
2023/09/30 10:20:06;;;;;;;1.97;0.70;;;21.80;99.90;;;;;;5103382;28;20740;-62
2023/09/30 10:22:35;;;;;;;2.40;0.80;;;21.60;99.90;;;;;;5103359;28;20550;-62
2023/09/30 10:25:46;;;;;;;2.53;0.70;;;21.50;99.90;;;;;;5108446;28;20537;-62
2023/09/30 10:28:36;;;;;;;1.20;0.70;;;21.40;99.90;;;;;;5094887;28;20441;-62
2023/09/30 10:31:12;;;;;;;1.35;0.70;;;21.20;99.90;;;;;;5101498;28;20421;-62
2023/09/30 10:34:24;;;;;;;1.75;0.70;;;21.30;1.00;;;;;;5104683;28;20847;-61
2023/09/30 10:36:54;;;;;;;2.13;0.70;;;21.30;1.00;;;;;;5099223;28;20544;-61
2023/09/30 10:39:58;;;;;;;1.83;0.70;;;21.20;99.90;;;;;;5090987;28;20487;-62
2023/09/30 10:42:51;;;;;;;1.60;0.70;;;21.00;1.00;;;;;;5108106;28;20742;-61
2023/09/30 10:45:51;;;;;;;1.10;0.70;;;20.90;1.00;;;;;;5094786;28;20442;-61
2023/09/30 10:48:35;;;;;;;1.70;0.70;;;20.90;1.00;;;;;;5069085;28;20530;-61
2023/09/30 10:51:14;;;;;;;3.38;0.60;;;20.80;1.00;;;;;;5061883;28;20481;-62
2023/09/30 10:53:46;;;;;;;1.00;0.60;;;20.80;1.00;;;;;;5076072;28;20751;-63
2023/09/30 10:56:16;;;;;;;1.42;0.70;;;20.80;1.00;;;;;;5114259;28;20421;-61
2023/09/30 10:58:45;;;;;;;2.80;0.70;;;20.70;1.00;;;;;;5116532;28;20416;-62
2023/09/30 11:01:13;;;;;;;1.40;0.80;;;20.70;1.00;;;;;;5113044;28;20438;-62
2023/09/30 11:03:41;;;;;;;1.85;0.75;;;21.10;1.00;;;;;;5102128;28;20440;-61
2023/09/30 11:06:09;;;;;;;2.30;0.90;;;21.40;99.90;;;;;;5116074;28;20439;-61
2023/09/30 11:08:37;;;;;;;2.50;0.70;;;21.40;99.90;;;;;;5107217;28;20436;-62
2023/09/30 11:11:05;;;;;;;2.70;0.70;;;21.50;99.90;;;;;;5116477;27;20458;-60
2023/09/30 11:13:38;;;;;;;2.35;0.93;;;21.40;99.90;;;;;;5111450;28;20454;-61
2023/09/30 11:16:07;;;;;;;1.80;0.80;;;21.60;99.90;;;;;;5074775;28;20442;-61
2023/09/30 11:18:34;;;;;;;1.88;0.80;;;21.60;99.90;;;;;;5076459;28;20467;-61
2023/09/30 11:21:10;;;;;;;1.70;0.80;;;21.60;99.90;;;;;;5084829;28;20525;-60
2023/09/30 11:23:38;;;;;;;1.90;0.70;;;21.50;99.90;;;;;;5074218;28;20522;-61
2023/09/30 11:26:06;;;;;;;1.77;0.73;;;21.60;99.90;;;;;;5089051;28;20468;-60
2023/09/30 11:28:42;;;;;;;1.00;0.63;;;21.70;99.90;;;;;;5084614;28;20445;-60
2023/09/30 11:31:13;;;;;;;1.60;0.70;;;21.70;99.90;;;;;;5074092;28;20427;-61
2023/09/30 11:33:53;;;;;;;1.70;0.70;;;21.70;99.90;;;;;;5080500;28;20437;-61
2023/09/30 11:36:21;;;;;;;1.83;0.70;;;21.70;99.90;;;;;;5096123;28;20524;-62
2023/09/30 11:38:52;;;;;;;1.35;0.60;;;21.70;99.90;;;;;;5096850;28;20430;-61
2023/09/30 11:41:19;;;;;;;1.77;0.75;;;21.70;97.50;;;;;;5091211;28;20435;-60
2023/09/30 11:44:04;;;;;;;3.10;0.80;;;21.70;42.80;;;;;;5085099;28;20796;-59
2023/09/30 11:46:33;;;;;;;2.40;0.70;;;21.80;34.90;;;;;;5092193;28;20871;-60
2023/09/30 11:49:02;;;;;;;2.05;0.80;;;21.80;1.00;;;;;;5078245;28;20447;-60
2023/09/30 11:51:31;;;;;;;2.03;0.80;;;21.60;8.90;;;;;;5103300;28;20473;-59
2023/09/30 11:53:58;;;;;;;1.23;0.60;;;21.70;14.00;;;;;;5093887;28;20441;-59
2023/09/30 11:56:29;;;;;;;2.00;0.80;;;21.60;1.00;;;;;;5094356;28;20512;-60
2023/09/30 11:58:58;;;;;;;2.50;0.80;;;21.40;1.10;;;;;;5094796;28;20453;-61
2023/09/30 12:01:30;;;;;;;2.08;0.80;;;21.60;25.20;;;;;;5076883;28;20423;-60
2023/09/30 12:03:58;;;;;;;1.40;0.70;;;22.10;1.00;;;;;;5081531;28;20469;-59
2023/09/30 12:06:25;;;;;;;2.03;0.70;;;22.40;1.00;;;;;;5094351;28;20509;-59
2023/09/30 12:08:53;;;;;;;1.88;0.63;;;22.40;1.00;;;;;;5104231;28;20864;-60
2023/09/30 12:11:23;;;;;;;1.50;0.60;;;22.40;1.00;;;;;;5094610;28;20451;-60
2023/09/30 12:13:51;;;;;;;2.30;0.70;;;22.00;1.00;;;;;;5097575;28;20724;-61
2023/09/30 12:16:19;;;;;;;2.03;0.70;;;22.00;1.00;;;;;;5110182;28;20495;-61
2023/09/30 12:18:48;;;;;;;1.20;0.70;;;21.70;1.00;;;;;;5118047;27;20536;-61
2023/09/30 12:21:19;;;;;;;1.83;0.80;;;21.60;1.00;;;;;;5117449;27;20508;-61
2023/09/30 12:23:48;;;;;;;2.20;0.70;;;21.60;1.00;;;;;;5118638;27;20774;-60
2023/09/30 12:26:19;;;;;;;2.13;0.70;;;21.60;1.00;;;;;;5112466;27;20858;-61
2023/09/30 12:28:48;;;;;;;1.45;0.70;;;21.60;1.00;;;;;;5105531;28;20477;-61
2023/09/30 12:31:15;;;;;;;2.08;0.70;;;21.50;1.00;;;;;;5104464;28;20868;-62
2023/09/30 12:33:42;;;;;;;2.22;0.80;;;21.60;1.00;;;;;;5110186;28;20436;-61
2023/09/30 12:36:12;;;;;;;2.50;0.80;;;21.50;1.00;;;;;;5103741;28;20840;-60
2023/09/30 12:38:40;;;;;;;1.77;0.73;;;21.70;1.00;;;;;;5096050;28;20536;-60
2023/09/30 12:41:07;;;;;;;2.05;0.85;;;22.00;1.00;;;;;;5109144;28;20483;-60
2023/09/30 12:43:34;;;;;;;1.63;0.70;;;22.20;1.00;;;;;;5095236;28;20515;-61
2023/09/30 12:46:02;;;;;;;3.20;0.80;;;22.50;1.00;;;;;;5098615;28;20433;-60
2023/09/30 12:48:29;;;;;;;2.00;0.70;;;22.70;1.00;;;;;;5102738;28;20523;-59
2023/09/30 12:50:56;;;;;;;1.83;0.80;;;22.90;1.00;;;;;;5092697;28;20524;-60
2023/09/30 12:53:25;;;;;;;2.00;0.80;;;22.60;1.00;;;;;;5089970;28;20564;-60
2023/09/30 12:55:52;;;;;;;1.50;0.60;;;22.60;1.00;;;;;;5088943;28;20504;-60
2023/09/30 12:58:19;;;;;;;2.30;0.70;;;22.80;1.00;;;;;;5090156;28;20516;-60
2023/09/30 13:00:47;;;;;;;1.98;0.80;;;22.90;1.00;;;;;;5094328;28;20435;-60
2023/09/30 13:03:15;;;;;;;1.60;0.70;;;23.10;1.00;;;;;;5091393;28;20421;-60
2023/09/30 13:05:42;;;;;;;2.40;0.70;;;23.00;1.00;;;;;;5109688;28;20855;-60